Time;durP1;ratioP1;P1;durP2;ratioP2;P2;SDS_P1;SDS_P2;PMS_P1;PMS_P2;Temp;Humidity;BMP_temperature;BMP_pressure;BME280_temperature;BME280_humidity;BME280_pressure;Samples;Min_cycle;Max_cycle;Signal;HPM_P1;HPM_P2
2022/08/30 00:01:07;;;;;;;5.57;2.28;;;21.90;58.40;;;;;;6218403;23;20009;-79
2022/08/30 00:03:44;;;;;;;5.80;2.40;;;22.00;58.50;;;;;;6218584;23;20321;-79
2022/08/30 00:06:10;;;;;;;7.53;2.38;;;21.90;58.40;;;;;;6218534;23;20008;-79
2022/08/30 00:08:37;;;;;;;4.53;2.10;;;22.00;58.30;;;;;;6218258;23;20416;-79
2022/08/30 00:11:04;;;;;;;8.02;2.25;;;22.00;58.20;;;;;;6218616;23;20001;-79
2022/08/30 00:13:49;;;;;;;6.07;2.33;;;21.90;58.10;;;;;;6218454;23;20018;-79
2022/08/30 00:16:16;;;;;;;5.25;2.22;;;21.90;58.10;;;;;;6218480;23;20012;-79
2022/08/30 00:18:42;;;;;;;5.97;2.10;;;21.80;58.10;;;;;;6218869;23;20050;-79
2022/08/30 00:21:09;;;;;;;5.13;2.05;;;21.80;57.80;;;;;;6218639;23;20000;-79
2022/08/30 00:23:36;;;;;;;3.00;1.80;;;21.80;57.80;;;;;;6218157;23;20425;-79
2022/08/30 00:26:02;;;;;;;10.20;2.30;;;21.80;57.60;;;;;;6218911;23;20011;-79
2022/08/30 00:28:29;;;;;;;5.78;2.60;;;21.80;57.40;;;;;;6217983;23;20020;-79
2022/08/30 00:30:55;;;;;;;5.28;2.03;;;21.90;57.50;;;;;;6218442;23;20030;-80
2022/08/30 00:33:21;;;;;;;5.97;2.20;;;21.80;57.30;;;;;;6191854;23;20031;-80
2022/08/30 00:35:48;;;;;;;4.13;1.95;;;21.80;57.20;;;;;;6191519;23;20047;-80
2022/08/30 00:38:14;;;;;;;5.50;1.85;;;21.80;57.00;;;;;;6218430;23;20000;-79
2022/08/30 00:40:43;;;;;;;6.03;2.13;;;21.80;56.90;;;;;;6218474;23;20001;-79
2022/08/30 00:43:13;;;;;;;4.80;2.28;;;21.80;56.80;;;;;;6218102;23;20420;-79
2022/08/30 00:45:39;;;;;;;6.72;1.90;;;21.90;56.70;;;;;;6218410;23;20110;-80
2022/08/30 00:48:07;;;;;;;3.90;1.75;;;21.80;56.60;;;;;;6216879;23;20005;-79
2022/08/30 00:50:41;;;;;;;6.70;2.03;;;21.80;56.60;;;;;;6218531;23;20620;-79
2022/08/30 00:53:12;;;;;;;7.53;1.92;;;21.80;56.40;;;;;;6191504;23;20005;-79
2022/08/30 00:55:39;;;;;;;5.57;2.40;;;21.80;56.40;;;;;;6217971;23;20441;-79
2022/08/30 00:58:09;;;;;;;5.30;2.30;;;21.80;56.40;;;;;;6218215;23;20023;-79
2022/08/30 01:00:35;;;;;;;5.05;1.63;;;21.80;56.30;;;;;;6218307;23;20008;-79
2022/08/30 01:03:01;;;;;;;3.60;1.70;;;21.80;56.30;;;;;;6218195;23;20008;-79
2022/08/30 01:05:27;;;;;;;5.68;1.83;;;21.80;56.20;;;;;;6217742;23;20008;-79
2022/08/30 01:07:53;;;;;;;5.07;2.03;;;21.80;56.10;;;;;;6217203;23;20011;-79
2022/08/30 01:10:19;;;;;;;4.18;2.28;;;21.80;56.00;;;;;;6191080;23;20080;-79
2022/08/30 01:12:46;;;;;;;6.65;2.10;;;21.80;55.90;;;;;;6191356;23;20013;-79
2022/08/30 01:15:13;;;;;;;4.57;2.08;;;21.80;56.00;;;;;;6218075;23;20005;-79
2022/08/30 01:17:42;;;;;;;3.22;1.63;;;21.80;56.00;;;;;;6218077;23;20001;-79
2022/08/30 01:20:11;;;;;;;3.42;1.85;;;21.80;55.90;;;;;;6218052;23;20083;-79
2022/08/30 01:22:49;;;;;;;5.78;1.80;;;21.70;56.20;;;;;;6217624;23;20043;-79
2022/08/30 01:25:23;;;;;;;5.47;1.90;;;21.70;56.20;;;;;;6216921;23;20008;-79
2022/08/30 01:27:55;;;;;;;5.25;2.05;;;21.60;56.30;;;;;;6217430;23;20009;-79
2022/08/30 01:30:22;;;;;;;5.82;1.95;;;21.60;56.40;;;;;;6218044;23;20508;-79
2022/08/30 01:32:51;;;;;;;4.82;1.95;;;21.60;56.30;;;;;;6217928;23;20054;-79
2022/08/30 01:35:19;;;;;;;7.25;2.38;;;21.60;56.20;;;;;;6217348;23;20096;-79
2022/08/30 01:37:46;;;;;;;3.97;1.90;;;21.60;56.20;;;;;;6217479;23;20000;-79
2022/08/30 01:40:14;;;;;;;5.70;1.90;;;21.60;56.20;;;;;;6218293;23;20358;-79
2022/08/30 01:42:40;;;;;;;5.47;1.88;;;21.60;56.20;;;;;;6217882;23;20004;-79
2022/08/30 01:45:11;;;;;;;5.07;1.75;;;21.60;56.20;;;;;;6216600;23;20009;-79
2022/08/30 01:47:36;;;;;;;3.72;1.95;;;21.60;56.20;;;;;;6217805;23;20024;-79
2022/08/30 01:50:05;;;;;;;5.57;2.10;;;21.50;56.10;;;;;;6217812;23;20384;-80
2022/08/30 01:52:31;;;;;;;4.93;2.35;;;21.50;56.20;;;;;;6217732;23;20344;-79
2022/08/30 01:54:56;;;;;;;5.10;1.70;;;21.50;56.20;;;;;;6191307;23;20032;-79
2022/08/30 01:57:25;;;;;;;7.70;2.33;;;21.40;56.40;;;;;;6217805;23;20055;-79
2022/08/30 01:59:51;;;;;;;4.03;1.77;;;21.40;56.30;;;;;;6218126;23;20090;-79
2022/08/30 02:02:24;;;;;;;6.43;2.22;;;21.40;56.40;;;;;;6217240;23;20004;-79
2022/08/30 02:04:51;;;;;;;5.88;2.10;;;21.40;56.30;;;;;;6216847;23;20108;-79
2022/08/30 02:07:16;;;;;;;5.25;2.13;;;21.40;56.30;;;;;;6218061;23;20027;-79
2022/08/30 02:09:43;;;;;;;6.65;2.13;;;21.40;56.20;;;;;;6217809;23;20032;-79
2022/08/30 02:12:08;;;;;;;4.30;1.85;;;21.40;56.40;;;;;;6191234;23;20027;-79
2022/08/30 02:14:35;;;;;;;8.57;2.20;;;21.30;56.60;;;;;;6190771;23;20001;-79
2022/08/30 02:17:01;;;;;;;4.65;2.00;;;21.30;56.60;;;;;;6217536;23;20008;-79
2022/08/30 02:19:28;;;;;;;4.20;1.65;;;21.30;56.50;;;;;;6217527;23;20341;-79
2022/08/30 02:21:54;;;;;;;3.80;1.88;;;21.30;56.40;;;;;;6190835;23;20008;-79
2022/08/30 02:24:19;;;;;;;4.47;2.00;;;21.30;56.50;;;;;;6219398;23;20072;-79
2022/08/30 02:26:45;;;;;;;4.22;1.80;;;21.30;56.40;;;;;;6219750;23;20009;-79
2022/08/30 02:29:11;;;;;;;3.83;2.10;;;21.30;56.30;;;;;;6219755;23;20032;-79
2022/08/30 02:31:37;;;;;;;5.85;2.78;;;21.30;56.80;;;;;;6219603;23;20008;-80
2022/08/30 02:34:03;;;;;;;3.63;1.85;;;21.30;56.60;;;;;;6219778;23;20635;-79
2022/08/30 02:36:32;;;;;;;6.43;2.08;;;21.30;56.60;;;;;;6219418;23;20113;-79
2022/08/30 02:38:58;;;;;;;2.72;1.58;;;21.20;56.60;;;;;;6220045;23;20337;-79
2022/08/30 02:41:23;;;;;;;6.20;2.05;;;21.20;56.80;;;;;;6218205;23;20024;-79
2022/08/30 02:43:50;;;;;;;7.55;2.63;;;21.20;56.60;;;;;;6219708;23;20000;-79
2022/08/30 02:46:16;;;;;;;3.88;1.80;;;21.20;56.60;;;;;;6219372;23;20008;-79
2022/08/30 02:48:42;;;;;;;6.35;2.05;;;21.20;56.60;;;;;;6192779;23;20048;-79
2022/08/30 02:51:11;;;;;;;5.45;1.83;;;21.20;56.70;;;;;;6219466;23;20455;-79
2022/08/30 02:53:38;;;;;;;7.57;1.92;;;21.20;56.80;;;;;;6219417;23;20009;-79
2022/08/30 02:56:04;;;;;;;4.60;1.95;;;21.20;56.70;;;;;;6219048;23;20011;-79
2022/08/30 02:58:30;;;;;;;7.15;1.98;;;21.10;56.60;;;;;;6193085;23;20072;-79
2022/08/30 03:00:56;;;;;;;6.55;2.22;;;21.10;57.00;;;;;;6217926;23;20047;-79
2022/08/30 03:03:21;;;;;;;4.20;2.47;;;21.00;57.10;;;;;;6192675;23;20000;-79
2022/08/30 03:05:47;;;;;;;8.00;2.25;;;21.00;56.90;;;;;;6219103;23;20341;-79
2022/08/30 03:08:13;;;;;;;7.70;1.90;;;21.00;57.30;;;;;;6219242;23;20032;-79
2022/08/30 03:10:39;;;;;;;4.22;2.28;;;21.00;57.00;;;;;;6218907;23;20507;-79
2022/08/30 03:13:06;;;;;;;3.80;2.20;;;20.90;57.80;;;;;;6219352;23;20005;-79
2022/08/30 03:15:34;;;;;;;3.50;1.90;;;20.90;57.20;;;;;;6192142;23;20005;-79
2022/08/30 03:18:00;;;;;;;5.55;2.20;;;20.90;57.20;;;;;;6218827;23;20043;-79
2022/08/30 03:20:26;;;;;;;8.98;2.38;;;20.90;57.50;;;;;;6218534;23;20008;-79
2022/08/30 03:22:52;;;;;;;5.03;1.67;;;20.90;57.60;;;;;;6192412;23;20488;-79
2022/08/30 03:25:22;;;;;;;5.28;1.90;;;20.80;57.70;;;;;;6218913;23;20027;-80
2022/08/30 03:27:49;;;;;;;5.47;2.05;;;20.80;57.60;;;;;;6219145;23;20000;-80
2022/08/30 03:30:16;;;;;;;5.18;2.05;;;20.80;57.60;;;;;;6219123;23;20011;-79
2022/08/30 03:32:43;;;;;;;5.45;2.50;;;20.80;57.90;;;;;;6218583;23;20004;-79
2022/08/30 03:35:08;;;;;;;4.07;2.03;;;20.80;57.70;;;;;;6218008;23;20017;-79
2022/08/30 03:37:35;;;;;;;4.30;2.25;;;20.70;57.80;;;;;;6218780;23;20003;-79
2022/08/30 03:40:02;;;;;;;6.28;2.70;;;20.70;58.00;;;;;;6218767;23;20080;-79
2022/08/30 03:42:28;;;;;;;5.80;2.28;;;20.70;58.30;;;;;;6218919;23;20460;-79
2022/08/30 03:44:54;;;;;;;5.75;2.92;;;20.60;58.20;;;;;;6218666;23;20005;-80
2022/08/30 03:47:20;;;;;;;5.32;2.15;;;20.50;58.30;;;;;;6218848;23;19997;-80
2022/08/30 03:49:46;;;;;;;5.55;2.33;;;20.50;58.20;;;;;;6218958;23;20004;-80
2022/08/30 03:52:11;;;;;;;5.60;2.10;;;20.50;58.20;;;;;;6218539;23;19997;-79
2022/08/30 03:54:38;;;;;;;4.97;1.80;;;20.50;58.50;;;;;;6217674;23;20008;-80
2022/08/30 03:57:05;;;;;;;4.70;2.33;;;20.40;58.70;;;;;;6192384;23;20004;-80
2022/08/30 03:59:31;;;;;;;6.53;2.40;;;20.40;58.70;;;;;;6192455;23;20028;-79
2022/08/30 04:01:57;;;;;;;4.88;2.25;;;20.30;58.90;;;;;;6218808;23;20004;-80
2022/08/30 04:04:23;;;;;;;4.13;1.92;;;20.30;58.70;;;;;;6191817;23;20405;-79
2022/08/30 04:06:49;;;;;;;6.22;2.63;;;20.30;58.90;;;;;;6218775;23;20005;-80
2022/08/30 04:09:15;;;;;;;6.65;2.08;;;20.30;58.80;;;;;;6218693;23;20009;-80
2022/08/30 04:11:41;;;;;;;4.30;1.92;;;20.30;58.60;;;;;;6218828;23;20005;-80
2022/08/30 04:14:07;;;;;;;5.97;2.17;;;20.30;58.60;;;;;;6217565;23;20005;-80
2022/08/30 04:16:32;;;;;;;4.70;2.58;;;20.30;58.50;;;;;;6191873;23;20004;-80
2022/08/30 04:18:58;;;;;;;6.35;2.60;;;20.30;58.70;;;;;;6218622;23;20000;-80
2022/08/30 04:21:25;;;;;;;7.75;2.17;;;20.30;58.50;;;;;;6218394;23;20000;-80
2022/08/30 04:23:51;;;;;;;5.03;1.85;;;20.30;58.60;;;;;;6218749;23;20016;-80
2022/08/30 04:26:17;;;;;;;3.10;1.77;;;20.30;58.70;;;;;;6218554;23;20004;-80
2022/08/30 04:28:43;;;;;;;4.13;1.80;;;20.30;58.90;;;;;;6218321;23;20011;-80
2022/08/30 04:31:14;;;;;;;6.20;2.20;;;20.10;59.00;;;;;;6218092;23;20065;-80
2022/08/30 04:33:40;;;;;;;5.57;1.90;;;20.20;58.90;;;;;;6217390;23;20000;-80
2022/08/30 04:36:08;;;;;;;9.48;2.40;;;20.20;59.00;;;;;;6218708;23;20024;-80
2022/08/30 04:38:35;;;;;;;6.78;2.33;;;20.10;59.20;;;;;;6218460;23;20036;-80
2022/08/30 04:41:01;;;;;;;4.78;1.83;;;20.10;59.30;;;;;;6191502;23;20004;-79
2022/08/30 04:43:27;;;;;;;6.28;2.00;;;20.00;59.40;;;;;;6218501;23;20004;-79
2022/08/30 04:45:54;;;;;;;2.85;2.00;;;20.00;59.70;;;;;;6217907;23;20005;-80
2022/08/30 04:48:21;;;;;;;7.65;2.47;;;20.00;59.70;;;;;;6218183;23;20024;-87
2022/08/30 04:50:47;;;;;;;8.15;2.47;;;20.00;59.50;;;;;;6193481;23;20008;-87
2022/08/30 04:53:15;;;;;;;5.30;2.30;;;20.00;59.70;;;;;;6225310;23;20067;-92
2022/08/30 04:55:44;;;;;;;6.70;2.35;;;20.00;59.70;;;;;;6200656;23;20009;-92
2022/08/30 04:58:30;;;;;;;5.63;2.28;;;19.90;59.90;;;;;;6205067;23;19989;-93
2022/08/30 05:00:56;;;;;;;6.85;2.28;;;19.90;60.00;;;;;;6197206;23;20000;-91
2022/08/30 05:03:21;;;;;;;5.10;2.03;;;19.90;60.10;;;;;;6195943;23;20008;-90
2022/08/30 05:05:48;;;;;;;6.60;2.35;;;19.80;60.40;;;;;;6195447;23;20083;-94
2022/08/30 05:08:16;;;;;;;7.40;2.45;;;19.80;60.40;;;;;;6196099;23;20008;-88
2022/08/30 05:10:45;;;;;;;6.63;2.67;;;19.80;60.70;;;;;;6222249;23;20437;-90
2022/08/30 05:13:13;;;;;;;6.38;2.30;;;19.70;60.70;;;;;;6193309;23;20004;-91
2022/08/30 05:15:50;;;;;;;;;;;;;;;;;;;;;
2022/08/30 05:18:16;;;;;;;4.93;2.17;;;19.60;61.00;;;;;;6221887;23;20021;-92
2022/08/30 05:20:42;;;;;;;3.70;2.10;;;19.60;61.00;;;;;;6194938;23;20011;-92
2022/08/30 05:23:09;;;;;;;3.42;1.70;;;19.70;60.70;;;;;;6197947;23;20032;-91
2022/08/30 05:25:39;;;;;;;5.40;1.98;;;19.70;60.80;;;;;;6195906;23;20012;-91
2022/08/30 05:28:04;;;;;;;5.43;2.58;;;19.60;60.80;;;;;;6197153;23;20361;-91
2022/08/30 05:30:33;;;;;;;6.25;2.38;;;19.60;61.00;;;;;;6194496;23;20009;-92
2022/08/30 05:32:59;;;;;;;7.80;2.13;;;19.60;61.00;;;;;;6197877;23;20020;-94
2022/08/30 05:35:25;;;;;;;6.43;2.33;;;19.50;61.10;;;;;;6199512;23;20433;-92
2022/08/30 05:37:51;;;;;;;4.95;2.33;;;19.60;61.10;;;;;;6194660;23;20012;-92
2022/08/30 05:40:17;;;;;;;5.50;2.67;;;19.50;61.30;;;;;;6192564;23;20043;-85
2022/08/30 05:42:44;;;;;;;6.18;2.95;;;19.50;61.30;;;;;;6218208;23;20063;-84
2022/08/30 05:45:10;;;;;;;5.78;2.33;;;19.50;61.20;;;;;;6218150;23;20004;-86
2022/08/30 05:47:36;;;;;;;4.75;2.22;;;19.50;61.20;;;;;;6191333;23;20012;-88
2022/08/30 05:50:03;;;;;;;5.30;2.30;;;19.50;61.30;;;;;;6218471;23;20011;-88
2022/08/30 05:52:28;;;;;;;5.43;2.17;;;19.50;61.20;;;;;;6191762;23;20043;-88
2022/08/30 05:55:01;;;;;;;6.00;2.63;;;19.50;61.10;;;;;;6192356;23;20012;-86
2022/08/30 05:57:27;;;;;;;5.80;2.28;;;19.60;61.00;;;;;;6190752;23;20012;-87
2022/08/30 05:59:52;;;;;;;4.20;2.15;;;19.50;61.60;;;;;;6217412;23;20127;-88
2022/08/30 06:02:18;;;;;;;5.53;2.20;;;19.50;61.40;;;;;;6191228;23;20005;-88
2022/08/30 06:04:44;;;;;;;3.30;1.95;;;19.40;61.40;;;;;;6190959;23;19996;-87
2022/08/30 06:07:09;;;;;;;4.70;2.25;;;19.40;61.50;;;;;;6191551;23;20001;-88
2022/08/30 06:09:35;;;;;;;4.72;2.20;;;19.40;61.70;;;;;;6217804;23;19997;-88
2022/08/30 06:12:01;;;;;;;5.03;2.25;;;19.40;61.60;;;;;;6217444;23;20079;-87
2022/08/30 06:14:26;;;;;;;4.88;2.60;;;19.40;61.80;;;;;;6217194;23;20337;-88
2022/08/30 06:16:52;;;;;;;3.97;2.50;;;19.40;62.00;;;;;;6217270;23;20036;-87
2022/08/30 06:19:18;;;;;;;5.25;2.47;;;19.40;62.10;;;;;;6191048;23;20083;-88
2022/08/30 06:21:47;;;;;;;7.35;2.83;;;19.40;62.00;;;;;;6190268;23;20008;-88
2022/08/30 06:24:13;;;;;;;6.73;2.50;;;19.40;61.90;;;;;;6190729;23;20080;-88
2022/08/30 06:26:42;;;;;;;5.15;2.20;;;19.50;61.80;;;;;;6218505;23;20672;-87
2022/08/30 06:29:10;;;;;;;6.10;2.30;;;19.50;62.00;;;;;;6193711;23;20005;-91
2022/08/30 06:31:36;;;;;;;5.28;2.72;;;19.50;61.70;;;;;;6192732;23;20767;-91
2022/08/30 06:34:07;;;;;;;8.10;3.03;;;19.40;61.80;;;;;;6194287;23;20059;-89
2022/08/30 06:36:33;;;;;;;5.18;2.35;;;19.50;61.70;;;;;;6191634;23;20017;-91
2022/08/30 06:39:00;;;;;;;7.53;2.35;;;19.60;61.60;;;;;;6187254;23;20024;-90
2022/08/30 06:41:28;;;;;;;5.00;2.80;;;19.70;61.60;;;;;;6186648;23;20005;-90
2022/08/30 06:43:55;;;;;;;7.85;2.60;;;19.60;61.70;;;;;;6191268;23;20001;-89
2022/08/30 06:46:23;;;;;;;4.85;2.30;;;19.60;61.50;;;;;;6216832;23;20012;-88
2022/08/30 06:48:49;;;;;;;11.88;3.25;;;19.70;61.60;;;;;;6191655;23;20027;-88
2022/08/30 06:51:19;;;;;;;8.00;2.42;;;19.70;61.60;;;;;;6191841;23;20004;-88
2022/08/30 06:53:45;;;;;;;7.05;2.50;;;19.70;61.40;;;;;;6217629;23;20011;-89
2022/08/30 06:56:11;;;;;;;7.95;2.63;;;19.80;61.30;;;;;;6192136;23;20456;-89
2022/08/30 06:58:39;;;;;;;4.35;2.03;;;19.80;61.10;;;;;;6191805;23;20005;-91
2022/08/30 07:01:06;;;;;;;6.28;2.13;;;19.90;61.00;;;;;;6191036;23;20052;-90
2022/08/30 07:03:33;;;;;;;6.50;2.38;;;19.90;61.00;;;;;;6187816;23;20062;-89
2022/08/30 07:05:58;;;;;;;7.93;2.60;;;20.00;61.10;;;;;;6189923;23;20008;-89
2022/08/30 07:08:24;;;;;;;9.55;2.42;;;20.00;60.90;;;;;;6216468;23;20475;-91
2022/08/30 07:10:53;;;;;;;4.88;2.40;;;20.00;60.90;;;;;;6192752;23;20015;-90
2022/08/30 07:13:19;;;;;;;3.72;2.33;;;20.10;60.70;;;;;;6193695;23;20009;-90
2022/08/30 07:15:46;;;;;;;4.85;2.65;;;20.20;60.30;;;;;;6193730;23;20071;-92
2022/08/30 07:21:04;;;;;;;5.88;2.00;;;20.30;59.80;;;;;;6214050;23;20015;-88
2022/08/30 07:23:29;;;;;;;5.80;2.25;;;20.40;59.70;;;;;;6218447;23;20003;-88
2022/08/30 07:25:55;;;;;;;6.65;2.22;;;20.50;59.70;;;;;;6192984;23;20005;-91
2022/08/30 07:28:21;;;;;;;7.85;2.15;;;20.50;60.30;;;;;;6192917;23;20016;-88
2022/08/30 07:30:47;;;;;;;7.47;2.30;;;20.60;59.20;;;;;;6217341;23;20080;-88
2022/08/30 07:33:13;;;;;;;5.78;1.83;;;20.70;58.80;;;;;;6192946;23;20088;-88
2022/08/30 07:35:39;;;;;;;5.53;2.53;;;20.80;58.30;;;;;;6218880;23;20143;-88
2022/08/30 07:38:04;;;;;;;3.97;2.13;;;20.80;58.20;;;;;;6193574;23;20000;-89
2022/08/30 07:40:30;;;;;;;5.05;2.42;;;20.90;58.10;;;;;;6192361;23;20646;-86
2022/08/30 07:42:56;;;;;;;6.60;2.25;;;21.10;57.30;;;;;;6218345;23;20019;-89
2022/08/30 07:45:21;;;;;;;7.03;2.03;;;21.20;56.50;;;;;;6186966;23;20066;-87
2022/08/30 07:47:47;;;;;;;3.42;1.90;;;21.30;56.40;;;;;;6217487;23;20007;-89
2022/08/30 07:50:14;;;;;;;5.57;2.10;;;21.40;56.40;;;;;;6217085;23;20079;-88
2022/08/30 07:52:40;;;;;;;4.00;2.17;;;21.60;56.00;;;;;;6217477;23;20005;-89
2022/08/30 07:55:06;;;;;;;5.47;2.08;;;22.00;54.60;;;;;;6191579;23;20013;-89
2022/08/30 07:57:33;;;;;;;5.97;1.98;;;23.30;52.00;;;;;;6192249;23;20000;-91
2022/08/30 07:59:59;;;;;;;5.22;1.92;;;25.30;47.20;;;;;;6192997;23;20000;-91
2022/08/30 08:02:25;;;;;;;7.32;2.28;;;26.80;43.90;;;;;;6193454;23;20072;-90
2022/08/30 08:04:51;;;;;;;7.85;2.53;;;27.90;42.20;;;;;;6193738;23;20012;-90
2022/08/30 08:07:17;;;;;;;5.32;2.40;;;28.90;39.60;;;;;;6189550;23;20009;-90
2022/08/30 08:09:43;;;;;;;6.63;2.13;;;29.70;38.50;;;;;;6218343;23;20005;-87
2022/08/30 08:12:09;;;;;;;6.20;2.17;;;30.10;37.60;;;;;;6218808;23;20366;-89
2022/08/30 08:14:35;;;;;;;5.90;2.15;;;30.40;36.80;;;;;;6191530;23;20008;-86
2022/08/30 08:17:01;;;;;;;4.50;2.13;;;30.70;35.60;;;;;;6191060;23;20008;-86
2022/08/30 08:19:27;;;;;;;5.03;2.10;;;30.90;36.10;;;;;;6192146;23;20011;-87
2022/08/30 08:21:55;;;;;;;6.55;2.47;;;31.00;36.00;;;;;;6192118;23;20091;-86
2022/08/30 08:24:22;;;;;;;6.63;2.40;;;30.30;36.20;;;;;;6218863;23;20075;-86
2022/08/30 08:26:48;;;;;;;4.53;1.95;;;29.50;37.10;;;;;;6218795;23;20242;-88
2022/08/30 08:29:13;;;;;;;4.50;2.20;;;29.30;38.30;;;;;;6218369;23;20056;-86
2022/08/30 08:31:40;;;;;;;8.90;2.53;;;29.00;39.00;;;;;;6191282;23;20013;-87
2022/08/30 08:34:07;;;;;;;5.63;2.63;;;28.30;39.60;;;;;;6192212;23;20040;-86
2022/08/30 08:36:34;;;;;;;4.40;2.40;;;27.80;40.80;;;;;;6218187;23;20051;-86
2022/08/30 08:39:01;;;;;;;8.48;2.35;;;27.30;41.60;;;;;;6218911;23;20064;-87
2022/08/30 08:41:44;;;;;;;5.10;2.42;;;27.10;42.30;;;;;;6191682;23;20009;-86
2022/08/30 08:44:41;;;;;;;5.60;2.22;;;27.00;42.60;;;;;;6191744;23;20005;-86
2022/08/30 08:47:29;;;;;;;6.45;2.38;;;27.10;42.70;;;;;;6185282;23;20011;-88
2022/08/30 08:49:58;;;;;;;3.38;1.95;;;27.20;42.70;;;;;;6192571;23;20012;-89
2022/08/30 08:55:46;;;;;;;3.95;2.10;;;27.10;43.30;;;;;;6218941;23;20420;-90
2022/08/30 08:58:29;;;;;;;7.97;2.65;;;26.90;43.80;;;;;;6190314;23;20011;-91
2022/08/30 09:00:56;;;;;;;6.20;2.30;;;26.60;44.80;;;;;;6190934;23;20004;-89
2022/08/30 09:03:25;;;;;;;7.35;2.10;;;26.30;44.60;;;;;;6190993;23;20004;-90
2022/08/30 09:05:52;;;;;;;6.60;2.75;;;26.10;45.20;;;;;;6192905;23;20015;-90
2022/08/30 09:08:19;;;;;;;4.32;2.33;;;26.00;45.90;;;;;;6192760;23;20009;-91
2022/08/30 09:11:03;;;;;;;5.75;2.13;;;26.00;45.70;;;;;;6192714;23;20032;-92
2022/08/30 09:13:28;;;;;;;6.40;2.58;;;26.10;46.20;;;;;;6193776;23;20041;-92
2022/08/30 09:15:56;;;;;;;5.13;2.20;;;26.50;45.90;;;;;;6193775;23;20057;-91
2022/08/30 09:18:52;;;;;;;5.97;2.35;;;27.00;44.10;;;;;;6185736;23;20066;-92
2022/08/30 09:21:24;;;;;;;5.40;2.47;;;28.00;42.20;;;;;;6161514;23;20008;-92
2022/08/30 09:23:55;;;;;;;4.85;2.33;;;28.90;41.40;;;;;;6191624;23;20000;-92
2022/08/30 09:26:33;;;;;;;4.40;2.45;;;29.10;39.20;;;;;;6192578;23;20543;-92
2022/08/30 09:28:59;;;;;;;5.38;2.38;;;30.40;38.40;;;;;;6192579;23;20008;-93
2022/08/30 09:31:26;;;;;;;4.70;2.10;;;31.70;36.40;;;;;;6193029;23;20004;-93
2022/08/30 09:34:04;;;;;;;4.32;2.60;;;32.50;35.10;;;;;;6191916;23;20009;-92
2022/08/30 09:36:44;;;;;;;5.28;2.40;;;33.40;33.80;;;;;;6218155;23;20151;-93
2022/08/30 09:39:19;;;;;;;4.10;2.22;;;34.10;32.70;;;;;;6192769;23;20066;-94
2022/08/30 09:41:49;;;;;;;3.90;1.90;;;34.60;31.40;;;;;;6193479;23;20071;-92
2022/08/30 09:44:21;;;;;;;5.05;2.63;;;34.80;30.30;;;;;;6192192;23;20001;-92
2022/08/30 09:46:53;;;;;;;6.00;1.88;;;34.90;29.80;;;;;;6191586;23;20752;-95
2022/08/30 09:49:32;;;;;;;6.25;2.47;;;35.20;30.80;;;;;;6191900;23;20614;-94
2022/08/30 09:52:12;;;;;;;5.82;2.25;;;35.20;29.90;;;;;;6191830;23;20008;-90
2022/08/30 09:54:48;;;;;;;4.97;2.38;;;35.00;30.20;;;;;;6190113;23;20015;-94
2022/08/30 09:57:58;;;;;;;5.40;2.58;;;34.80;30.60;;;;;;6191658;23;20008;-95
2022/08/30 10:00:27;;;;;;;3.70;2.20;;;34.60;29.80;;;;;;6124830;23;20011;-93
2022/08/30 10:02:56;;;;;;;7.80;2.72;;;34.90;30.60;;;;;;6191241;23;20028;-94
2022/08/30 10:06:09;;;;;;;4.75;2.38;;;35.20;30.20;;;;;;6194320;23;20012;-92
2022/08/30 10:09:03;;;;;;;3.95;2.50;;;35.00;30.20;;;;;;6190577;23;19993;-94
2022/08/30 10:11:43;;;;;;;5.85;2.50;;;35.30;30.30;;;;;;6192796;23;20382;-93
2022/08/30 10:14:23;;;;;;;5.20;2.45;;;34.80;29.70;;;;;;6192657;23;20032;-94
2022/08/30 10:17:18;;;;;;;4.22;2.38;;;35.10;31.10;;;;;;6192984;23;20004;-93
2022/08/30 10:20:01;;;;;;;4.03;2.30;;;34.70;30.70;;;;;;6192879;23;20005;-92
2022/08/30 10:22:35;;;;;;;6.90;2.55;;;34.10;30.50;;;;;;6194827;23;20322;-94
2022/08/30 10:25:11;;;;;;;4.70;2.33;;;33.80;31.80;;;;;;6192729;23;20008;-92
2022/08/30 10:27:47;;;;;;;4.55;2.80;;;33.20;32.80;;;;;;6194083;23;20039;-93
2022/08/30 10:30:16;;;;;;;5.55;2.30;;;32.70;34.40;;;;;;6193705;23;20031;-92
2022/08/30 10:32:56;;;;;;;7.28;2.78;;;32.10;34.90;;;;;;6193039;23;20040;-93
2022/08/30 10:35:27;;;;;;;4.20;2.20;;;31.70;36.10;;;;;;6193528;23;20345;-91
2022/08/30 10:38:05;;;;;;;7.35;3.40;;;31.20;36.00;;;;;;6193311;23;20028;-92
2022/08/30 10:43:37;;;;;;;5.78;2.38;;;30.70;38.00;;;;;;6221048;23;20080;-93
2022/08/30 10:46:13;;;;;;;4.30;2.10;;;30.30;37.70;;;;;;6196743;23;20100;-93
2022/08/30 10:48:42;;;;;;;4.85;2.35;;;30.10;38.50;;;;;;6194624;23;20008;-94
2022/08/30 10:51:35;;;;;;;4.55;2.30;;;29.90;39.30;;;;;;6195025;23;20016;-93
2022/08/30 10:54:43;;;;;;;5.43;2.72;;;29.70;39.60;;;;;;6194326;23;20004;-93
2022/08/30 10:57:09;;;;;;;7.82;2.50;;;29.60;39.40;;;;;;6195630;23;20005;-93
2022/08/30 10:59:44;;;;;;;4.68;2.25;;;29.50;40.00;;;;;;6195003;23;20022;-91
2022/08/30 11:02:45;;;;;;;6.78;2.45;;;29.50;40.10;;;;;;6195341;23;20039;-92
2022/08/30 11:05:36;;;;;;;5.88;2.40;;;29.50;40.20;;;;;;6195592;23;20340;-93
2022/08/30 11:08:08;;;;;;;6.50;2.60;;;29.70;40.00;;;;;;6194410;23;20001;-91
2022/08/30 11:10:49;;;;;;;6.65;3.05;;;29.50;39.50;;;;;;6194942;23;20079;-92
2022/08/30 11:13:23;;;;;;;5.70;2.45;;;29.30;40.40;;;;;;6194237;23;20463;-93
2022/08/30 11:15:58;;;;;;;6.30;2.22;;;29.40;40.90;;;;;;6194788;23;20515;-93
2022/08/30 11:18:28;;;;;;;5.95;2.40;;;29.40;40.50;;;;;;6194488;23;20004;-92
2022/08/30 11:21:15;;;;;;;4.57;2.28;;;29.50;40.40;;;;;;6194664;23;20004;-92
2022/08/30 11:23:41;;;;;;;3.65;2.35;;;29.60;40.70;;;;;;6193960;23;20051;-92
2022/08/30 11:26:09;;;;;;;4.32;2.20;;;29.60;40.50;;;;;;6195044;23;20016;-93
2022/08/30 11:28:34;;;;;;;6.22;2.95;;;29.60;40.30;;;;;;6194783;23;20032;-92
2022/08/30 11:31:19;;;;;;;5.85;2.65;;;29.70;40.60;;;;;;6195022;23;20011;-92
2022/08/30 11:33:49;;;;;;;6.78;2.72;;;29.70;40.90;;;;;;6194254;23;20036;-90
2022/08/30 11:36:31;;;;;;;8.40;2.35;;;29.70;40.10;;;;;;6193998;23;20012;-90
2022/08/30 11:39:04;;;;;;;6.32;2.40;;;29.50;40.00;;;;;;6194775;23;20060;-91
2022/08/30 11:41:36;;;;;;;6.38;2.33;;;29.60;40.40;;;;;;6195137;23;20011;-93
2022/08/30 11:44:20;;;;;;;4.13;2.08;;;29.60;40.50;;;;;;6194780;23;20024;-93
2022/08/30 11:46:59;;;;;;;4.97;2.47;;;29.70;41.00;;;;;;6194063;23;20015;-94
2022/08/30 11:49:45;;;;;;;6.78;2.80;;;29.70;40.30;;;;;;6194147;23;20028;-92
2022/08/30 11:52:34;;;;;;;3.25;2.38;;;29.50;40.30;;;;;;6194314;23;20007;-92
2022/08/30 11:55:22;;;;;;;5.28;2.58;;;29.60;40.80;;;;;;6194887;23;20012;-92
2022/08/30 11:58:18;;;;;;;7.30;2.67;;;29.70;40.60;;;;;;6194554;23;19996;-93
2022/08/30 12:00:46;;;;;;;5.13;2.65;;;29.80;41.40;;;;;;6221259;23;20005;-93
2022/08/30 12:03:15;;;;;;;4.90;2.57;;;29.90;40.60;;;;;;6194692;23;20060;-93
2022/08/30 12:05:44;;;;;;;6.90;2.63;;;29.90;40.40;;;;;;6194573;23;20020;-92
2022/08/30 12:08:19;;;;;;;5.20;2.75;;;29.90;40.30;;;;;;6194322;23;20068;-94
2022/08/30 12:10:52;;;;;;;4.72;2.25;;;29.90;40.90;;;;;;6194375;23;20491;-90
2022/08/30 12:13:33;;;;;;;4.82;2.35;;;30.00;40.30;;;;;;6193757;23;20039;-90
2022/08/30 12:16:13;;;;;;;3.78;2.55;;;30.00;40.70;;;;;;6193614;23;20012;-90
2022/08/30 12:18:44;;;;;;;6.05;2.67;;;30.10;40.30;;;;;;6194415;23;20007;-93
2022/08/30 12:21:14;;;;;;;4.68;2.10;;;30.10;40.30;;;;;;6194016;23;20059;-91
2022/08/30 12:23:47;;;;;;;;;;;30.20;40.30;;;;;;6193625;23;20011;-94
2022/08/30 12:26:29;;;;;;;4.05;2.15;;;30.00;39.30;;;;;;6198273;23;19904;-92
2022/08/30 12:29:07;;;;;;;5.68;2.35;;;30.00;40.60;;;;;;6194495;23;20322;-92
2022/08/30 12:31:45;;;;;;;3.55;2.75;;;30.10;40.90;;;;;;6194519;23;20004;-91
2022/08/30 12:34:20;;;;;;;4.95;2.65;;;30.10;40.90;;;;;;6194111;23;20012;-91
2022/08/30 12:36:56;;;;;;;9.23;2.50;;;30.00;40.30;;;;;;6189004;23;20514;-93
2022/08/30 12:39:29;;;;;;;5.40;2.95;;;29.90;40.00;;;;;;6188739;23;20059;-91
2022/08/30 12:42:08;;;;;;;5.70;2.60;;;30.00;40.90;;;;;;6190106;23;20012;-93
2022/08/30 12:44:34;;;;;;;;;;;30.10;40.70;;;;;;6189568;23;20001;-93
2022/08/30 12:47:03;;;;;;;4.80;2.90;;;30.10;40.30;;;;;;6189333;23;19907;-91
2022/08/30 12:49:33;;;;;;;5.30;2.55;;;30.10;39.80;;;;;;6188468;23;20005;-92
2022/08/30 12:52:25;;;;;;;4.25;2.17;;;30.10;40.80;;;;;;6189326;23;20009;-92
2022/08/30 12:55:09;;;;;;;5.00;2.28;;;30.20;41.00;;;;;;6172768;23;20013;-92
2022/08/30 12:57:42;;;;;;;4.05;2.35;;;30.30;40.70;;;;;;6188572;23;20016;-90
2022/08/30 13:00:22;;;;;;;4.63;2.40;;;30.40;40.30;;;;;;6188736;23;20016;-92
2022/08/30 13:02:50;;;;;;;4.78;2.35;;;30.30;39.80;;;;;;6191783;23;20446;-92
2022/08/30 13:05:46;;;;;;;4.50;2.00;;;30.30;39.80;;;;;;6189854;23;20009;-92
2022/08/30 13:08:16;;;;;;;6.72;2.35;;;30.30;40.20;;;;;;6158568;23;20001;-92
2022/08/30 13:11:03;;;;;;;4.35;2.40;;;30.30;40.40;;;;;;6188396;23;20005;-93
2022/08/30 13:13:39;;;;;;;5.10;2.45;;;30.40;40.20;;;;;;6188793;23;20001;-93